Time;durP1;ratioP1;P1;durP2;ratioP2;P2;SDS_P1;SDS_P2;PMS_P1;PMS_P2;Temp;Humidity;BMP_temperature;BMP_pressure;BME280_temperature;BME280_humidity;BME280_pressure;Samples;Min_cycle;Max_cycle;Signal;HPM_P1;HPM_P2
2021/11/08 00:01:21;;;;;;;;;;;21.00;99.90;;;;;;6185119;23;19911;-76
2021/11/08 00:03:50;;;;;;;;;;;20.90;99.90;;;;;;6158482;23;19904;-78
2021/11/08 00:06:18;;;;;;;;;;;20.90;99.90;;;;;;6184543;23;19950;-75
2021/11/08 00:08:45;;;;;;;;;;;20.90;99.90;;;;;;6184659;23;19904;-75
2021/11/08 00:11:13;;;;;;;;;;;20.80;99.90;;;;;;6184735;23;20212;-77
2021/11/08 00:13:39;;;;;;;;;;;20.70;99.90;;;;;;6184814;23;19911;-75
2021/11/08 00:21:05;;;;;;;;;;;20.80;99.90;;;;;;6184467;23;19928;-77
2021/11/08 00:23:32;;;;;;;;;;;21.00;99.90;;;;;;6184631;23;19904;-77
2021/11/08 00:25:59;;;;;;;;;;;21.10;99.90;;;;;;6184543;23;19916;-77
2021/11/08 00:28:25;;;;;;;;;;;21.40;99.90;;;;;;6184305;23;19924;-76
2021/11/08 00:30:53;;;;;;;;;;;21.60;99.90;;;;;;6184056;23;19904;-77
2021/11/08 00:33:20;;;;;;;;;;;21.90;99.90;;;;;;6184389;23;19908;-77
2021/11/08 00:35:49;;;;;;;;;;;22.20;99.90;;;;;;6184602;23;19905;-77
2021/11/08 00:38:16;;;;;;;;;;;22.40;99.90;;;;;;6184852;23;19912;-76
2021/11/08 00:40:42;;;;;;;;;;;22.40;99.90;;;;;;6184793;23;19908;-77
2021/11/08 00:43:09;;;;;;;;;;;22.20;99.90;;;;;;6184646;23;19904;-77
2021/11/08 00:45:37;;;;;;;;;;;21.90;99.90;;;;;;6184152;23;20262;-77
2021/11/08 00:48:04;;;;;;;;;;;21.70;99.90;;;;;;6184750;23;19955;-75
2021/11/08 00:50:31;;;;;;;;;;;21.60;99.90;;;;;;6184509;23;20308;-77
2021/11/08 00:52:58;;;;;;;;;;;21.60;99.90;;;;;;6184658;23;20291;-77
2021/11/08 00:55:26;;;;;;;;;;;21.50;99.90;;;;;;6184387;23;19915;-72
2021/11/08 00:57:56;;;;;;;;;;;21.50;99.90;;;;;;6184529;23;19912;-73
2021/11/08 01:00:28;;;;;;;;;;;21.60;99.90;;;;;;6184253;23;19904;-67
2021/11/08 01:02:56;;;;;;;;;;;21.60;99.90;;;;;;6183991;23;19912;-74
2021/11/08 01:05:23;;;;;;;;;;;21.60;99.90;;;;;;6184161;23;20334;-77
2021/11/08 01:07:49;;;;;;;;;;;21.60;99.90;;;;;;6184628;23;19982;-72
2021/11/08 01:10:17;;;;;;;;;;;21.50;99.90;;;;;;6184666;23;19905;-76
2021/11/08 01:12:44;;;;;;;;;;;21.50;99.90;;;;;;6184215;23;19915;-74
2021/11/08 01:15:11;;;;;;;;;;;21.60;99.90;;;;;;6184249;23;20851;-69
2021/11/08 01:17:38;;;;;;;;;;;22.00;99.90;;;;;;6184094;23;19947;-70
2021/11/08 01:20:06;;;;;;;;;;;22.10;99.90;;;;;;6184432;23;19920;-70
2021/11/08 01:22:34;;;;;;;;;;;22.00;99.90;;;;;;6183990;23;20243;-70
2021/11/08 01:25:01;;;;;;;;;;;21.90;99.90;;;;;;6183756;23;19940;-77
2021/11/08 01:27:37;;;;;;;;;;;21.80;99.90;;;;;;6158114;23;19927;-75
2021/11/08 01:30:06;;;;;;;;;;;21.80;99.90;;;;;;6184051;23;20308;-76
2021/11/08 01:32:33;;;;;;;;;;;21.80;99.90;;;;;;6183841;23;20395;-74
2021/11/08 01:35:00;;;;;;;;;;;21.80;99.90;;;;;;6184103;23;19905;-69
2021/11/08 01:37:28;;;;;;;;;;;21.80;99.90;;;;;;6183754;23;20275;-71
2021/11/08 01:39:55;;;;;;;;;;;21.80;99.90;;;;;;6184752;23;20335;-77
2021/11/08 01:42:22;;;;;;;;;;;21.80;99.90;;;;;;6186742;23;20023;-74
2021/11/08 01:44:48;;;;;;;;;;;21.90;99.90;;;;;;6186419;23;19904;-73
2021/11/08 01:47:15;;;;;;;;;;;22.10;99.90;;;;;;6186372;23;19931;-74
2021/11/08 01:49:42;;;;;;;;;;;22.10;99.90;;;;;;6186186;23;19905;-73
2021/11/08 01:52:11;;;;;;;;;;;22.20;99.90;;;;;;6186172;23;19911;-72
2021/11/08 01:54:41;;;;;;;;;;;22.30;99.90;;;;;;6185100;23;19938;-71
2021/11/08 01:57:08;;;;;;;;;;;22.30;99.90;;;;;;6186290;23;19912;-73
2021/11/08 01:59:37;;;;;;;;;;;22.30;99.90;;;;;;6186089;23;20316;-73
2021/11/08 02:02:04;;;;;;;;;;;22.30;99.90;;;;;;6186017;23;19912;-77
2021/11/08 02:04:31;;;;;;;;;;;22.30;99.90;;;;;;6185675;23;19908;-77
2021/11/08 02:06:58;;;;;;;;;;;22.40;99.90;;;;;;6186590;23;19912;-73
2021/11/08 02:09:25;;;;;;;;;;;22.50;99.90;;;;;;6185763;23;19904;-76
2021/11/08 02:11:51;;;;;;;;;;;22.60;99.90;;;;;;6159758;23;19904;-76
2021/11/08 02:14:18;;;;;;;;;;;22.60;99.90;;;;;;6186054;23;19927;-75
2021/11/08 02:16:45;;;;;;;;;;;22.70;99.90;;;;;;6185400;23;19905;-74
2021/11/08 02:19:11;;;;;;;;;;;22.60;99.90;;;;;;6185770;23;20161;-73
2021/11/08 02:21:38;;;;;;;;;;;22.50;99.90;;;;;;6185706;23;20047;-76
2021/11/08 02:24:09;;;;;;;;;;;22.60;99.90;;;;;;6185270;23;19935;-75
2021/11/08 02:26:36;;;;;;;;;;;22.70;99.90;;;;;;6185237;23;19923;-71
2021/11/08 02:29:04;;;;;;;;;;;22.60;99.90;;;;;;6185823;23;20312;-71
2021/11/08 02:31:33;;;;;;;;;;;22.60;99.90;;;;;;6185792;23;19959;-71
2021/11/08 02:34:00;;;;;;;;;;;22.40;99.90;;;;;;6186015;23;19904;-76
2021/11/08 02:36:27;;;;;;;;;;;22.40;99.90;;;;;;6185425;23;19904;-74
2021/11/08 02:38:56;;;;;;;;;;;22.30;99.90;;;;;;6184454;23;19916;-68
2021/11/08 02:41:23;;;;;;;;;;;22.30;99.90;;;;;;6185063;23;20312;-67
2021/11/08 02:43:50;;;;;;;;;;;22.40;99.90;;;;;;6185769;23;19905;-71
2021/11/08 02:46:19;;;;;;;;;;;22.40;99.90;;;;;;6185788;23;19928;-71
2021/11/08 02:48:48;;;;;;;;;;;22.30;99.90;;;;;;6185274;23;20383;-76
2021/11/08 02:51:19;;;;;;;;;;;22.30;99.90;;;;;;6184895;23;20338;-73
2021/11/08 02:53:47;;;;;;;;;;;22.40;99.90;;;;;;6184614;23;19905;-76
2021/11/08 02:56:15;;;;;;;;;;;22.30;99.90;;;;;;6184845;23;19931;-75
2021/11/08 02:58:43;;;;;;;;;;;22.30;99.90;;;;;;6184500;23;20377;-77
2021/11/08 03:01:13;;;;;;;;;;;22.20;99.90;;;;;;6185299;23;20312;-74
2021/11/08 03:03:47;;;;;;;;;;;22.30;99.90;;;;;;6185378;23;19904;-71
2021/11/08 03:06:27;;;;;;;;;;;22.10;99.90;;;;;;6185245;23;19924;-77
2021/11/08 03:08:56;;;;;;;;;;;22.10;99.90;;;;;;6184646;23;19987;-72
2021/11/08 03:11:23;;;;;;;;;;;21.90;99.90;;;;;;6185294;23;20284;-74
2021/11/08 03:14:03;;;;;;;;;;;22.00;99.90;;;;;;6185539;23;19944;-67
2021/11/08 03:22:11;;;;;;;;;;;22.10;99.90;;;;;;6160839;23;19915;-68
2021/11/08 03:24:40;;;;;;;;;;;22.20;99.90;;;;;;6184465;23;19936;-75
2021/11/08 03:27:23;;;;;;;;;;;22.30;99.90;;;;;;6185472;23;20274;-71
2021/11/08 03:29:51;;;;;;;;;;;22.30;99.90;;;;;;6185329;23;19911;-74
2021/11/08 03:32:19;;;;;;;;;;;22.30;99.90;;;;;;6185102;23;19982;-77
2021/11/08 03:35:08;;;;;;;;;;;22.30;99.90;;;;;;6185232;23;19904;-74
2021/11/08 03:37:37;;;;;;;;;;;22.20;99.90;;;;;;6183931;23;20224;-69
2021/11/08 03:40:07;;;;;;;;;;;22.10;99.90;;;;;;6184985;23;19942;-76
2021/11/08 03:42:33;;;;;;;;;;;22.10;99.90;;;;;;6184340;23;20355;-75
2021/11/08 03:45:00;;;;;;;;;;;22.10;99.90;;;;;;6185016;23;19908;-78
2021/11/08 03:47:27;;;;;;;;;;;22.10;99.90;;;;;;6185099;23;20308;-77
2021/11/08 03:49:53;;;;;;;;;;;22.20;99.90;;;;;;6184876;23;20327;-73
2021/11/08 03:52:20;;;;;;;;;;;22.30;99.90;;;;;;6184774;23;19916;-71
2021/11/08 03:54:47;;;;;;;;;;;22.20;99.90;;;;;;6184774;23;19904;-79
2021/11/08 03:57:13;;;;;;;;;;;22.10;99.90;;;;;;6185035;23;19966;-75
2021/11/08 03:59:40;;;;;;;;;;;22.10;99.90;;;;;;6184986;23;19924;-75
2021/11/08 04:02:07;;;;;;;;;;;22.00;99.90;;;;;;6184420;23;20346;-76
2021/11/08 04:04:33;;;;;;;;;;;22.00;99.90;;;;;;6184394;23;19916;-74
2021/11/08 04:07:01;;;;;;;;;;;22.10;99.90;;;;;;6183578;23;19905;-78
2021/11/08 04:09:28;;;;;;;;;;;22.10;99.90;;;;;;6184615;23;20192;-75
2021/11/08 04:11:55;;;;;;;;;;;22.10;99.90;;;;;;6184671;23;19905;-76
2021/11/08 04:14:24;;;;;;;;;;;22.00;99.90;;;;;;6184949;23;19904;-77
2021/11/08 04:16:51;;;;;;;;;;;22.00;99.90;;;;;;6184559;23;19904;-76
2021/11/08 04:19:18;;;;;;;;;;;21.90;99.90;;;;;;6184377;23;19909;-76
2021/11/08 04:21:45;;;;;;;;;;;21.90;99.90;;;;;;6184216;23;19908;-76
2021/11/08 04:24:12;;;;;;;;;;;21.90;99.90;;;;;;6184707;23;19943;-77
2021/11/08 04:26:39;;;;;;;;;;;21.90;99.90;;;;;;6184039;23;19916;-77
2021/11/08 04:29:06;;;;;;;;;;;22.10;99.90;;;;;;6184321;23;19904;-77
2021/11/08 04:31:37;;;;;;;;;;;22.00;99.90;;;;;;6183703;23;19920;-76
2021/11/08 04:34:29;;;;;;;;;;;21.90;99.90;;;;;;6184162;23;19908;-78
2021/11/08 04:40:05;;;;;;;;;;;21.60;99.90;;;;;;6184777;23;19995;-77
2021/11/08 04:42:38;;;;;;;;;;;21.50;99.90;;;;;;6184450;23;19904;-72
2021/11/08 04:53:31;;;;;;;;;;;21.20;99.90;;;;;;6126649;23;19944;-77
2021/11/08 05:31:40;;;;;;;;;;;21.10;99.90;;;;;;6186345;23;19911;-75
2021/11/08 05:34:07;;;;;;;;;;;21.30;99.90;;;;;;6185954;23;19991;-74
2021/11/08 05:36:34;;;;;;;;;;;21.40;99.90;;;;;;6186216;23;19908;-76
2021/11/08 05:39:01;;;;;;;;;;;21.60;99.90;;;;;;6185968;23;19947;-77
2021/11/08 05:41:28;;;;;;;;;;;21.40;99.90;;;;;;6186191;23;19908;-73
2021/11/08 05:43:54;;;;;;;;;;;21.40;99.90;;;;;;6186213;23;19916;-76
2021/11/08 05:46:21;;;;;;;;;;;21.30;99.90;;;;;;6185653;23;19904;-75
2021/11/08 05:48:50;;;;;;;;;;;21.30;99.90;;;;;;6186082;23;19908;-75
2021/11/08 05:51:16;;;;;;;;;;;21.30;99.90;;;;;;6184525;23;19911;-77
2021/11/08 05:53:44;;;;;;;;;;;21.30;99.90;;;;;;6183428;23;20374;-71
2021/11/08 05:59:11;;;;;;;;;;;21.30;99.90;;;;;;6193029;23;20275;-78
2021/11/08 06:50:52;;;;;;;;;;;21.10;99.90;;;;;;6183600;23;19910;-72
2021/11/08 06:53:19;;;;;;;;;;;21.10;99.90;;;;;;6182780;23;19914;-69
2021/11/08 06:55:50;;;;;;;;;;;21.00;99.90;;;;;;6156947;23;20035;-69
2021/11/08 06:58:18;;;;;;;;;;;21.00;99.90;;;;;;6183300;23;19952;-71
2021/11/08 07:00:46;;;;;;;;;;;21.00;99.90;;;;;;6182437;23;19904;-76
2021/11/08 07:03:13;;;;;;;;;;;20.90;99.90;;;;;;6182773;23;19911;-68
2021/11/08 07:05:40;;;;;;;;;;;20.90;99.90;;;;;;6182846;23;19912;-72
2021/11/08 07:08:07;;;;;;;;;;;20.90;99.90;;;;;;6182724;23;19905;-78
2021/11/08 07:10:34;;;;;;;;;;;20.80;99.90;;;;;;6182651;23;19982;-76
2021/11/08 07:13:13;;;;;;;;;;;20.80;99.90;;;;;;6182867;23;20307;-79
2021/11/08 07:15:43;;;;;;;;;;;20.70;99.90;;;;;;6180265;23;20237;-73
2021/11/08 07:18:10;;;;;;;;;;;20.70;99.90;;;;;;6182945;23;19913;-72
2021/11/08 07:20:36;;;;;;;;;;;20.60;99.90;;;;;;6183059;23;19926;-72
2021/11/08 07:23:03;;;;;;;;;;;20.60;99.90;;;;;;6182203;23;20346;-74
2021/11/08 07:25:30;;;;;;;;;;;20.50;99.90;;;;;;6182072;23;19923;-76
2021/11/08 07:27:56;;;;;;;;;;;20.50;99.90;;;;;;6183161;23;20359;-76
2021/11/08 07:30:25;;;;;;;;;;;20.50;99.90;;;;;;6183178;23;19987;-73
2021/11/08 07:32:51;;;;;;;;;;;20.40;99.90;;;;;;6182509;23;20378;-73
2021/11/08 07:35:18;;;;;;;;;;;20.40;99.90;;;;;;6182685;23;19940;-76
2021/11/08 07:37:48;;;;;;;;;;;20.40;99.90;;;;;;6181729;23;20359;-78
2021/11/08 07:40:15;;;;;;;;;;;20.30;99.90;;;;;;6182508;23;19928;-73
2021/11/08 07:42:42;;;;;;;;;;;20.20;99.90;;;;;;6182724;23;19944;-74
2021/11/08 07:45:09;;;;;;;;;;;20.20;99.90;;;;;;6182513;23;20008;-70
2021/11/08 07:47:37;;;;;;;;;;;20.20;99.90;;;;;;6182843;23;19904;-74
2021/11/08 07:50:05;;;;;;;;;;;20.10;99.90;;;;;;6182781;23;19941;-70
2021/11/08 07:52:32;;;;;;;;;;;20.20;99.90;;;;;;6181798;23;20326;-67
2021/11/08 07:54:58;;;;;;;;;;;20.20;99.90;;;;;;6182688;23;20211;-71
2021/11/08 07:57:25;;;;;;;;;;;20.10;99.90;;;;;;6156275;23;19912;-69
2021/11/08 07:59:52;;;;;;;;;;;20.00;99.90;;;;;;6182341;23;20007;-71
2021/11/08 08:02:18;;;;;;;;;;;20.00;99.90;;;;;;6182507;23;19908;-75
2021/11/08 08:04:45;;;;;;;;;;;20.00;99.90;;;;;;6181735;23;19904;-71
2021/11/08 08:07:12;;;;;;;;;;;19.90;99.90;;;;;;6184654;23;19932;-72
2021/11/08 08:09:38;;;;;;;;;;;19.90;99.90;;;;;;6184822;23;19943;-74
2021/11/08 08:12:05;;;;;;;;;;;19.90;99.90;;;;;;6184937;23;19904;-76
2021/11/08 08:14:32;;;;;;;;;;;19.90;99.90;;;;;;6184877;23;20315;-81
2021/11/08 08:17:02;;;;;;;;;;;19.90;99.90;;;;;;6184386;23;19983;-71
2021/11/08 08:19:31;;;;;;;;;;;19.90;99.90;;;;;;6184144;23;19915;-75
2021/11/08 08:21:58;;;;;;;;;;;19.90;99.90;;;;;;6184883;23;20275;-75
2021/11/08 08:24:24;;;;;;;;;;;19.90;99.90;;;;;;6184700;23;19935;-73
2021/11/08 08:26:51;;;;;;;;;;;20.00;99.90;;;;;;6184471;23;19978;-75
2021/11/08 08:29:18;;;;;;;;;;;19.90;99.90;;;;;;6184719;23;20350;-75
2021/11/08 08:31:45;;;;;;;;;;;19.90;99.90;;;;;;6184585;23;20350;-79
2021/11/08 08:34:13;;;;;;;;;;;19.90;99.90;;;;;;6184146;23;20516;-70
2021/11/08 08:36:40;;;;;;;;;;;19.90;99.90;;;;;;6184452;23;20281;-78
2021/11/08 08:39:07;;;;;;;;;;;19.80;99.90;;;;;;6183867;23;19967;-72
2021/11/08 08:41:35;;;;;;;;;;;19.70;99.90;;;;;;6184687;23;19987;-79
2021/11/08 08:44:01;;;;;;;;;;;19.70;99.90;;;;;;6182829;23;20059;-77
2021/11/08 08:46:28;;;;;;;;;;;19.70;99.90;;;;;;6181914;23;20243;-76
2021/11/08 08:48:55;;;;;;;;;;;19.60;99.90;;;;;;6180952;23;19991;-71
2021/11/08 08:51:21;;;;;;;;;;;19.70;99.90;;;;;;6181623;23;19912;-78
2021/11/08 08:53:49;;;;;;;;;;;19.60;99.90;;;;;;6181719;23;19972;-79
2021/11/08 08:56:16;;;;;;;;;;;19.60;99.90;;;;;;6182204;23;19908;-68
2021/11/08 08:58:43;;;;;;;;;;;19.60;99.90;;;;;;6181379;23;20002;-71
2021/11/08 09:01:10;;;;;;;;;;;19.60;99.90;;;;;;6181892;23;20209;-68
2021/11/08 09:03:36;;;;;;;;;;;19.60;99.90;;;;;;6181587;23;20295;-75
2021/11/08 09:06:04;;;;;;;;;;;19.70;99.90;;;;;;6182614;23;20774;-71
2021/11/08 09:08:32;;;;;;;;;;;19.70;99.90;;;;;;6181219;23;19939;-75
2021/11/08 09:10:59;;;;;;;;;;;19.60;99.90;;;;;;6181558;23;19927;-71
2021/11/08 09:13:25;;;;;;;;;;;19.60;99.90;;;;;;6182037;23;19909;-74
2021/11/08 09:15:52;;;;;;;;;;;19.40;99.90;;;;;;6181759;23;19960;-68
2021/11/08 09:18:19;;;;;;;;;;;19.40;99.90;;;;;;6181587;23;19916;-68
2021/11/08 09:20:46;;;;;;;;;;;19.40;99.90;;;;;;6182096;23;19908;-75
2021/11/08 09:23:13;;;;;;;;;;;19.40;99.90;;;;;;6181510;23;19908;-69
2021/11/08 09:25:40;;;;;;;;;;;19.30;99.90;;;;;;6181655;23;19954;-74
2021/11/08 09:28:10;;;;;;;;;;;19.30;99.90;;;;;;6180699;23;20280;-75
2021/11/08 09:30:40;;;;;;;;;;;19.30;99.90;;;;;;6181854;23;19908;-78
2021/11/08 09:33:07;;;;;;;;;;;19.30;99.90;;;;;;6180928;23;19951;-72
2021/11/08 09:35:37;;;;;;;;;;;19.20;99.90;;;;;;6181694;23;20045;-74
2021/11/08 09:38:09;;;;;;;;;;;19.30;99.90;;;;;;6180524;23;20367;-76
2021/11/08 09:40:37;;;;;;;;;;;19.30;99.90;;;;;;6181418;23;19904;-70
2021/11/08 09:43:07;;;;;;;;;;;19.30;99.90;;;;;;6181941;23;19939;-70
2021/11/08 09:45:33;;;;;;;;;;;19.30;99.90;;;;;;6182054;23;19939;-72
2021/11/08 09:48:00;;;;;;;;;;;19.30;99.90;;;;;;6181358;23;20354;-65
2021/11/08 09:50:30;;;;;;;;;;;19.40;99.90;;;;;;6181630;23;19904;-71
2021/11/08 09:52:58;;;;;;;;;;;19.40;99.90;;;;;;6181264;23;19976;-71
2021/11/08 09:55:25;;;;;;;;;;;19.40;99.90;;;;;;6181972;23;19915;-73
2021/11/08 09:57:55;;;;;;;;;;;19.40;99.90;;;;;;6181928;23;20038;-65
2021/11/08 10:00:28;;;;;;;;;;;19.40;99.90;;;;;;6182841;23;19911;-74
2021/11/08 10:02:57;;;;;;;;;;;19.50;99.90;;;;;;6183055;23;19911;-70
2021/11/08 10:05:26;;;;;;;;;;;19.50;99.90;;;;;;6183815;23;19909;-69
2021/11/08 10:07:53;;;;;;;;;;;19.50;99.90;;;;;;6183323;23;19971;-68
2021/11/08 10:10:20;;;;;;;;;;;19.50;99.90;;;;;;6183910;23;19908;-73
2021/11/08 10:12:49;;;;;;;;;;;19.40;99.90;;;;;;6183505;23;20328;-70
2021/11/08 10:15:19;;;;;;;;;;;19.40;99.90;;;;;;6183219;23;19909;-66
2021/11/08 10:17:46;;;;;;;;;;;19.40;99.90;;;;;;6182728;23;19916;-74
2021/11/08 10:20:18;;;;;;;;;;;19.40;99.90;;;;;;6183480;23;19931;-75
2021/11/08 10:22:46;;;;;;;;;;;19.40;99.90;;;;;;6183069;23;19957;-76
2021/11/08 10:25:14;;;;;;;;;;;19.40;99.90;;;;;;6183779;23;19908;-74
2021/11/08 10:27:43;;;;;;;;;;;19.40;99.90;;;;;;6183641;23;20436;-72
2021/11/08 10:30:19;;;;;;;;;;;19.40;99.90;;;;;;6183240;23;19905;-69
2021/11/08 10:32:46;;;;;;;;;;;19.30;99.90;;;;;;6183766;23;19904;-72
2021/11/08 10:35:13;;;;;;;;;;;19.20;99.90;;;;;;6183853;23;19932;-69
2021/11/08 10:37:40;;;;;;;;;;;19.20;99.90;;;;;;6182974;23;20324;-70
2021/11/08 10:40:16;;;;;;;;;;;19.10;99.90;;;;;;6183773;23;19912;-73
2021/11/08 10:42:43;;;;;;;;;;;19.10;99.90;;;;;;6182868;23;19908;-74
2021/11/08 10:45:20;;;;;;;;;;;19.10;99.90;;;;;;6183255;23;19904;-74
2021/11/08 10:47:57;;;;;;;;;;;19.10;99.90;;;;;;6183192;23;20330;-77
2021/11/08 10:50:24;;;;;;;;;;;19.00;99.90;;;;;;6183197;23;20249;-69
2021/11/08 10:53:00;;;;;;;;;;;19.00;99.90;;;;;;6182559;23;19904;-76
2021/11/08 10:55:30;;;;;;;;;;;18.90;99.90;;;;;;6182996;23;20342;-74
2021/11/08 10:58:07;;;;;;;;;;;18.90;99.90;;;;;;6183576;23;20457;-78
2021/11/08 11:00:34;;;;;;;;;;;18.90;99.90;;;;;;6182431;23;19986;-72
2021/11/08 11:03:00;;;;;;;;;;;18.90;99.90;;;;;;6183109;23;19987;-73
2021/11/08 11:05:27;;;;;;;;;;;19.00;99.90;;;;;;6182923;23;19936;-70
2021/11/08 11:08:02;;;;;;;;;;;18.90;99.90;;;;;;6182379;23;20525;-76
2021/11/08 11:10:29;;;;;;;;;;;19.00;99.90;;;;;;6182548;23;20339;-74
2021/11/08 11:12:58;;;;;;;;;;;18.90;99.90;;;;;;6182835;23;20027;-75
2021/11/08 11:15:32;;;;;;;;;;;19.00;99.90;;;;;;6182548;23;20422;-72
2021/11/08 11:18:00;;;;;;;;;;;19.00;99.90;;;;;;6182677;23;19988;-74
2021/11/08 11:20:32;;;;;;;;;;;19.00;99.90;;;;;;6181743;23;20384;-69
2021/11/08 11:23:15;;;;;;;;;;;19.10;99.90;;;;;;6182942;23;19904;-77
2021/11/08 11:25:43;;;;;;;;;;;19.10;99.90;;;;;;6182666;23;19923;-72
2021/11/08 11:28:13;;;;;;;;;;;19.10;99.90;;;;;;6183027;23;20239;-75
2021/11/08 11:30:44;;;;;;;;;;;19.10;99.90;;;;;;6182191;23;19936;-75
2021/11/08 11:33:13;;;;;;;;;;;19.10;99.90;;;;;;6182583;23;19991;-68
2021/11/08 11:35:50;;;;;;;;;;;19.10;99.90;;;;;;6181853;23;19915;-68
2021/11/08 11:38:17;;;;;;;;;;;19.10;99.90;;;;;;6182612;23;19912;-78
2021/11/08 11:40:46;;;;;;;;;;;19.00;99.90;;;;;;6182182;23;19911;-74
2021/11/08 11:43:17;;;;;;;;;;;19.00;99.90;;;;;;6182720;23;19904;-68
2021/11/08 11:45:54;;;;;;;;;;;19.00;99.90;;;;;;6181840;23;20336;-76
2021/11/08 11:48:24;;;;;;;;;;;19.00;99.90;;;;;;6182153;23;19959;-69
2021/11/08 11:50:50;;;;;;;;;;;18.90;99.90;;;;;;6182730;23;19908;-74
2021/11/08 11:53:17;;;;;;;;;;;19.00;99.90;;;;;;6182548;23;19999;-74
2021/11/08 11:55:46;;;;;;;;;;;19.00;99.90;;;;;;6182722;23;19908;-67
2021/11/08 11:58:14;;;;;;;;;;;18.90;99.90;;;;;;6182574;23;20231;-70
2021/11/08 12:00:42;;;;;;;;;;;18.90;99.90;;;;;;6181612;23;19912;-78
2021/11/08 12:03:09;;;;;;;;;;;18.90;99.90;;;;;;6182757;23;19977;-75
2021/11/08 12:05:36;;;;;;;;;;;19.00;99.90;;;;;;6182594;23;19908;-72
2021/11/08 12:08:05;;;;;;;;;;;19.00;99.90;;;;;;6182480;23;19959;-72
2021/11/08 12:10:31;;;;;;;;;;;19.00;99.90;;;;;;6180793;23;19912;-77
2021/11/08 12:12:58;;;;;;;;;;;18.90;99.90;;;;;;6180957;23;20543;-70
2021/11/08 12:15:30;;;;;;;;;;;18.90;99.90;;;;;;6182021;23;20715;-79
2021/11/08 12:18:05;;;;;;;;;;;18.90;99.90;;;;;;6182214;23;20346;-70
2021/11/08 12:20:31;;;;;;;;;;;18.90;99.90;;;;;;6182309;23;19904;-73
2021/11/08 12:22:58;;;;;;;;;;;18.90;99.90;;;;;;6182261;23;20335;-68
2021/11/08 12:25:26;;;;;;;;;;;18.90;99.90;;;;;;6182182;23;19916;-76
2021/11/08 12:27:54;;;;;;;;;;;18.90;99.90;;;;;;6181887;23;19912;-70
2021/11/08 12:30:21;;;;;;;;;;;18.90;99.90;;;;;;6181435;23;19911;-80
2021/11/08 12:32:52;;;;;;;;;;;18.90;99.90;;;;;;6182420;23;19915;-76
2021/11/08 12:35:21;;;;;;;;;;;18.90;99.90;;;;;;6182793;23;20395;-68
2021/11/08 12:37:48;;;;;;;;;;;18.90;99.90;;;;;;6182606;23;20319;-68
2021/11/08 12:40:17;;;;;;;;;;;18.90;99.90;;;;;;6181943;23;20229;-68
2021/11/08 12:42:44;;;;;;;;;;;18.90;99.90;;;;;;6182056;23;19994;-68
2021/11/08 12:45:26;;;;;;;;;;;19.00;99.90;;;;;;6181671;23;19931;-73
2021/11/08 12:48:00;;;;;;;;;;;18.90;99.90;;;;;;6182273;23;19911;-71
2021/11/08 12:50:52;;;;;;;;;;;18.90;99.90;;;;;;6181695;23;19954;-77
2021/11/08 12:53:30;;;;;;;;;;;18.90;99.90;;;;;;6175428;23;19904;-75
2021/11/08 12:55:59;;;;;;;;;;;18.90;99.90;;;;;;6182572;23;20406;-74
2021/11/08 12:58:31;;;;;;;;;;;18.90;99.90;;;;;;6181361;23;19920;-75
2021/11/08 13:01:00;;;;;;;;;;;18.90;99.90;;;;;;6182264;23;20327;-77
2021/11/08 13:03:38;;;;;;;;;;;18.90;99.90;;;;;;6182284;23;19915;-71
2021/11/08 13:06:06;;;;;;;;;;;18.80;99.90;;;;;;6181846;23;19916;-79
2021/11/08 13:08:33;;;;;;;;;;;18.70;99.90;;;;;;6182138;23;19915;-80
2021/11/08 13:11:12;;;;;;;;;;;18.60;99.90;;;;;;6181715;23;19931;-80
2021/11/08 13:13:43;;;;;;;;;;;18.50;99.90;;;;;;6181418;23;19939;-79
2021/11/08 13:16:11;;;;;;;;;;;18.50;99.90;;;;;;6181693;23;19905;-71
2021/11/08 13:18:39;;;;;;;;;;;18.40;99.90;;;;;;6180887;23;19990;-81
2021/11/08 13:21:06;;;;;;;;;;;18.40;99.90;;;;;;6181924;23;19908;-78
2021/11/08 13:23:34;;;;;;;;;;;18.40;99.90;;;;;;6181789;23;19979;-71
2021/11/08 13:26:01;;;;;;;;;;;18.40;99.90;;;;;;6181663;23;19971;-80
2021/11/08 13:28:31;;;;;;;;;;;18.40;99.90;;;;;;6181137;23;19905;-73
2021/11/08 13:30:59;;;;;;;;;;;18.40;99.90;;;;;;6182513;23;19928;-78
2021/11/08 13:33:30;;;;;;;;;;;18.40;99.90;;;;;;6184517;23;19912;-81
2021/11/08 13:35:57;;;;;;;;;;;18.40;99.90;;;;;;6186010;23;19904;-76
2021/11/08 13:38:26;;;;;;;;;;;18.40;99.90;;;;;;6186025;23;19917;-77
2021/11/08 13:40:55;;;;;;;;;;;18.40;99.90;;;;;;6186397;23;20272;-79
2021/11/08 13:43:23;;;;;;;;;;;18.40;99.90;;;;;;6186088;23;19909;-81
2021/11/08 13:45:57;;;;;;;;;;;18.50;99.90;;;;;;6186154;23;19905;-81
2021/11/08 13:48:27;;;;;;;;;;;18.50;99.90;;;;;;6185813;23;20345;-77
2021/11/08 13:50:54;;;;;;;;;;;18.50;99.90;;;;;;6186078;23;19951;-79
2021/11/08 13:53:28;;;;;;;;;;;18.50;99.90;;;;;;6186143;23;20346;-77
2021/11/08 13:55:56;;;;;;;;;;;18.60;99.90;;;;;;6186147;23;19908;-75
2021/11/08 13:58:23;;;;;;;;;;;18.60;99.90;;;;;;6185438;23;19912;-68
2021/11/08 14:00:50;;;;;;;;;;;18.60;99.90;;;;;;6185420;23;19910;-77
2021/11/08 14:03:17;;;;;;;;;;;18.60;99.90;;;;;;6185816;23;19908;-79
2021/11/08 14:05:48;;;;;;;;;;;18.70;99.90;;;;;;6185958;23;19904;-78
2021/11/08 14:08:25;;;;;;;;;;;18.60;99.90;;;;;;6185878;23;20240;-80
2021/11/08 14:10:52;;;;;;;;;;;18.70;99.90;;;;;;6186291;23;19904;-79
2021/11/08 14:13:19;;;;;;;;;;;18.70;99.90;;;;;;6185445;23;19983;-78
2021/11/08 14:15:56;;;;;;;;;;;18.70;99.90;;;;;;6185836;23;19927;-79
2021/11/08 14:18:22;;;;;;;;;;;18.70;99.90;;;;;;6185758;23;20011;-81
2021/11/08 14:20:49;;;;;;;;;;;18.60;99.90;;;;;;6186084;23;20320;-75
2021/11/08 14:23:15;;;;;;;;;;;18.60;99.90;;;;;;6185755;23;19904;-79
2021/11/08 14:25:43;;;;;;;;;;;18.50;99.90;;;;;;6185500;23;19916;-72
2021/11/08 14:28:10;;;;;;;;;;;18.40;99.90;;;;;;6185260;23;19908;-75
2021/11/08 14:30:36;;;;;;;;;;;18.30;99.90;;;;;;6185568;23;19911;-79
2021/11/08 14:33:03;;;;;;;;;;;18.30;99.90;;;;;;6159568;23;19936;-80
2021/11/08 14:35:31;;;;;;;;;;;18.20;99.90;;;;;;6185665;23;19935;-77
2021/11/08 14:38:04;;;;;;;;;;;18.20;99.90;;;;;;6185702;23;19912;-76
2021/11/08 14:40:35;;;;;;;;;;;18.20;99.90;;;;;;6185319;23;19940;-80
2021/11/08 14:43:12;;;;;;;;;;;18.20;99.90;;;;;;6186383;23;20011;-79
2021/11/08 14:45:40;;;;;;;;;;;18.20;99.90;;;;;;6186550;23;19910;-75
2021/11/08 14:48:07;;;;;;;;;;;18.20;99.90;;;;;;6188107;23;20316;-79
2021/11/08 14:50:35;;;;;;;;;;;18.30;99.90;;;;;;6187492;23;19908;-76
2021/11/08 14:53:03;;;;;;;;;;;18.20;99.90;;;;;;6186561;23;19909;-82
2021/11/08 14:55:31;;;;;;;;;;;18.10;99.90;;;;;;6185866;23;20205;-80
2021/11/08 14:57:59;;;;;;;;;;;17.90;99.90;;;;;;6184647;23;19908;-75
2021/11/08 15:00:30;;;;;;;;;;;17.80;99.90;;;;;;6185478;23;19904;-81
2021/11/08 15:03:08;;;;;;;;;;;17.80;99.90;;;;;;6185668;23;19934;-80
2021/11/08 15:05:35;;;;;;;;;;;17.80;99.90;;;;;;6185363;23;19999;-80
2021/11/08 15:08:04;;;;;;;;;;;17.70;99.90;;;;;;6185622;23;20320;-79
2021/11/08 15:10:33;;;;;;;;;;;17.70;99.90;;;;;;6185269;23;19944;-80
2021/11/08 15:13:01;;;;;;;;;;;17.70;99.90;;;;;;6184894;23;19904;-75
2021/11/08 15:15:37;;;;;;;;;;;17.60;99.90;;;;;;6185302;23;19975;-75
2021/11/08 15:18:07;;;;;;;;;;;17.70;99.90;;;;;;6185437;23;20312;-80
2021/11/08 15:20:35;;;;;;;;;;;17.70;99.90;;;;;;6185464;23;19908;-71
2021/11/08 15:23:05;;;;;;;;;;;17.70;99.90;;;;;;6185631;23;19911;-72
2021/11/08 15:25:33;;;;;;;;;;;17.70;99.90;;;;;;6185042;23;20312;-68
2021/11/08 15:28:01;;;;;;;;;;;17.60;99.90;;;;;;6185612;23;19904;-79
2021/11/08 15:30:29;;;;;;;;;;;17.60;99.90;;;;;;6184690;23;19912;-75
2021/11/08 15:33:25;;;;;;;;;;;17.60;99.90;;;;;;6185398;23;19904;-77
2021/11/08 15:35:53;;;;;;;;;;;17.60;99.90;;;;;;6153764;23;19905;-74
2021/11/08 15:38:22;;;;;;;;;;;17.60;99.90;;;;;;6185203;23;19912;-74
2021/11/08 15:40:49;;;;;;;;;;;17.60;99.90;;;;;;6184671;23;20284;-77
2021/11/08 15:43:19;;;;;;;;;;;17.60;99.90;;;;;;6185230;23;19927;-78
2021/11/08 15:45:48;;;;;;;;;;;17.60;99.90;;;;;;6185080;23;20272;-78
2021/11/08 15:48:15;;;;;;;;;;;17.60;99.90;;;;;;6185072;23;20341;-75
2021/11/08 15:50:42;;;;;;;;;;;17.60;99.90;;;;;;6158388;23;19905;-73
2021/11/08 15:53:09;;;;;;;;;;;17.60;99.90;;;;;;6185090;23;19950;-79
2021/11/08 15:55:39;;;;;;;;;;;17.60;99.90;;;;;;6184358;23;20309;-76
2021/11/08 15:58:09;;;;;;;;;;;17.70;99.90;;;;;;6184196;23;20380;-73
2021/11/08 16:00:37;;;;;;;;;;;17.60;99.90;;;;;;6184432;23;19904;-77
2021/11/08 16:03:04;;;;;;;;;;;17.70;99.90;;;;;;6185098;23;19959;-75
2021/11/08 16:05:31;;;;;;;;;;;17.70;99.90;;;;;;6185377;23;19905;-81
2021/11/08 16:07:58;;;;;;;;;;;17.80;99.90;;;;;;6185339;23;19979;-76
2021/11/08 16:10:25;;;;;;;;;;;17.80;99.90;;;;;;6184029;23;20220;-74
2021/11/08 16:12:51;;;;;;;;;;;17.80;99.90;;;;;;6185071;23;19904;-73
2021/11/08 16:15:20;;;;;;;;;;;17.80;99.90;;;;;;6184896;23;19960;-80